sensor_id;sensor_type;location;lat;lon;timestamp;pressure;altitude;pressure_sealevel;temperature;humidity
18678;BME280;9469;51.114;13.914;2023-08-06T00:02:43;98017.66;;;16.02;100.00
18678;BME280;9469;51.114;13.914;2023-08-06T00:07:49;98002.00;;;16.62;100.00
18678;BME280;9469;51.114;13.914;2023-08-06T00:12:54;97988.25;;;16.47;100.00
18678;BME280;9469;51.114;13.914;2023-08-06T00:18:02;97987.25;;;16.75;100.00
18678;BME280;9469;51.114;13.914;2023-08-06T00:23:08;97974.41;;;16.87;100.00
18678;BME280;9469;51.114;13.914;2023-08-06T00:28:15;97974.41;;;16.65;100.00
18678;BME280;9469;51.114;13.914;2023-08-06T00:33:23;97972.16;;;16.47;100.00
18678;BME280;9469;51.114;13.914;2023-08-06T00:38:29;97966.22;;;16.38;100.00
18678;BME280;9469;51.114;13.914;2023-08-06T00:43:37;97975.06;;;16.39;100.00
18678;BME280;9469;51.114;13.914;2023-08-06T00:48:44;97960.81;;;16.16;100.00
18678;BME280;9469;51.114;13.914;2023-08-06T00:53:50;97960.75;;;16.12;100.00
18678;BME280;9469;51.114;13.914;2023-08-06T00:58:57;97959.19;;;16.11;100.00
18678;BME280;9469;51.114;13.914;2023-08-06T01:04:05;97955.03;;;16.14;100.00
18678;BME280;9469;51.114;13.914;2023-08-06T01:09:27;97941.41;;;16.22;100.00
18678;BME280;9469;51.114;13.914;2023-08-06T01:14:50;97938.47;;;16.31;100.00
18678;BME280;9469;51.114;13.914;2023-08-06T01:19:59;97908.63;;;16.32;100.00
18678;BME280;9469;51.114;13.914;2023-08-06T01:25:08;97903.69;;;16.15;100.00
18678;BME280;9469;51.114;13.914;2023-08-06T01:30:17;97894.09;;;16.14;100.00
18678;BME280;9469;51.114;13.914;2023-08-06T01:35:23;97886.91;;;16.18;100.00
18678;BME280;9469;51.114;13.914;2023-08-06T01:40:36;97870.44;;;16.20;100.00
18678;BME280;9469;51.114;13.914;2023-08-06T01:45:42;97868.50;;;16.39;100.00
18678;BME280;9469;51.114;13.914;2023-08-06T01:50:48;97869.06;;;16.29;100.00
18678;BME280;9469;51.114;13.914;2023-08-06T01:55:56;97866.34;;;16.26;100.00
18678;BME280;9469;51.114;13.914;2023-08-06T02:01:02;97863.19;;;16.43;100.00
18678;BME280;9469;51.114;13.914;2023-08-06T02:06:08;97871.44;;;16.54;100.00
18678;BME280;9469;51.114;13.914;2023-08-06T02:11:16;97881.59;;;16.44;100.00
18678;BME280;9469;51.114;13.914;2023-08-06T02:16:21;97893.75;;;16.58;100.00
18678;BME280;9469;51.114;13.914;2023-08-06T02:21:29;97885.50;;;16.70;100.00
18678;BME280;9469;51.114;13.914;2023-08-06T02:26:37;97881.06;;;16.81;100.00
18678;BME280;9469;51.114;13.914;2023-08-06T02:31:43;97872.16;;;16.51;100.00
18678;BME280;9469;51.114;13.914;2023-08-06T02:36:48;97870.72;;;16.57;100.00
18678;BME280;9469;51.114;13.914;2023-08-06T02:41:56;97874.72;;;16.24;100.00
18678;BME280;9469;51.114;13.914;2023-08-06T02:47:01;97854.81;;;16.25;100.00
18678;BME280;9469;51.114;13.914;2023-08-06T02:52:07;97859.00;;;16.45;100.00
18678;BME280;9469;51.114;13.914;2023-08-06T02:57:17;97850.88;;;16.42;100.00
18678;BME280;9469;51.114;13.914;2023-08-06T03:02:24;97839.31;;;16.15;100.00
18678;BME280;9469;51.114;13.914;2023-08-06T03:07:35;97832.69;;;16.32;100.00
18678;BME280;9469;51.114;13.914;2023-08-06T03:12:52;97833.22;;;16.18;100.00
18678;BME280;9469;51.114;13.914;2023-08-06T03:17:58;97827.50;;;16.42;100.00
18678;BME280;9469;51.114;13.914;2023-08-06T03:23:03;97812.22;;;16.46;100.00
18678;BME280;9469;51.114;13.914;2023-08-06T03:28:12;97799.59;;;16.24;100.00
18678;BME280;9469;51.114;13.914;2023-08-06T03:33:20;97807.78;;;16.31;100.00
18678;BME280;9469;51.114;13.914;2023-08-06T03:38:25;97798.28;;;16.37;100.00
18678;BME280;9469;51.114;13.914;2023-08-06T03:43:33;97795.59;;;16.37;100.00
18678;BME280;9469;51.114;13.914;2023-08-06T03:48:43;97789.94;;;16.42;100.00
18678;BME280;9469;51.114;13.914;2023-08-06T03:53:51;97786.16;;;16.47;100.00
18678;BME280;9469;51.114;13.914;2023-08-06T03:58:59;97784.63;;;16.46;100.00
18678;BME280;9469;51.114;13.914;2023-08-06T04:04:07;97773.94;;;16.49;100.00
18678;BME280;9469;51.114;13.914;2023-08-06T04:09:12;97760.13;;;16.02;100.00
18678;BME280;9469;51.114;13.914;2023-08-06T04:14:21;97755.59;;;16.06;100.00
18678;BME280;9469;51.114;13.914;2023-08-06T04:19:26;97753.69;;;16.29;100.00
18678;BME280;9469;51.114;13.914;2023-08-06T04:24:31;97748.78;;;16.58;100.00
18678;BME280;9469;51.114;13.914;2023-08-06T04:29:40;97741.03;;;16.53;100.00
18678;BME280;9469;51.114;13.914;2023-08-06T04:34:45;97728.47;;;16.34;100.00
18678;BME280;9469;51.114;13.914;2023-08-06T04:39:52;97730.16;;;16.45;100.00
18678;BME280;9469;51.114;13.914;2023-08-06T04:45:01;97722.81;;;16.42;100.00
18678;BME280;9469;51.114;13.914;2023-08-06T04:50:09;97728.97;;;16.69;100.00
18678;BME280;9469;51.114;13.914;2023-08-06T04:55:17;97716.63;;;16.61;100.00
18678;BME280;9469;51.114;13.914;2023-08-06T05:00:24;97710.34;;;16.54;100.00
18678;BME280;9469;51.114;13.914;2023-08-06T05:05:29;97715.78;;;16.57;100.00
18678;BME280;9469;51.114;13.914;2023-08-06T05:10:35;97700.19;;;16.66;100.00
18678;BME280;9469;51.114;13.914;2023-08-06T05:15:43;97708.69;;;16.45;100.00
18678;BME280;9469;51.114;13.914;2023-08-06T05:20:49;97697.31;;;16.52;100.00
18678;BME280;9469;51.114;13.914;2023-08-06T05:25:55;97700.69;;;16.75;100.00
18678;BME280;9469;51.114;13.914;2023-08-06T05:31:05;97689.75;;;16.61;100.00
18678;BME280;9469;51.114;13.914;2023-08-06T05:36:10;97679.75;;;16.58;100.00
18678;BME280;9469;51.114;13.914;2023-08-06T05:41:16;97665.66;;;16.38;100.00
18678;BME280;9469;51.114;13.914;2023-08-06T05:46:25;97678.00;;;16.46;100.00
18678;BME280;9469;51.114;13.914;2023-08-06T05:51:30;97674.13;;;16.67;100.00
18678;BME280;9469;51.114;13.914;2023-08-06T05:56:35;97681.44;;;16.70;100.00
18678;BME280;9469;51.114;13.914;2023-08-06T06:01:43;97680.13;;;16.57;100.00
18678;BME280;9469;51.114;13.914;2023-08-06T06:06:49;97687.22;;;16.72;100.00
18678;BME280;9469;51.114;13.914;2023-08-06T06:11:54;97684.84;;;16.40;100.00
18678;BME280;9469;51.114;13.914;2023-08-06T06:17:02;97685.34;;;16.49;100.00
18678;BME280;9469;51.114;13.914;2023-08-06T06:22:07;97684.34;;;16.58;100.00
18678;BME280;9469;51.114;13.914;2023-08-06T06:27:12;97688.91;;;16.31;100.00
18678;BME280;9469;51.114;13.914;2023-08-06T06:32:20;97689.03;;;16.94;100.00
18678;BME280;9469;51.114;13.914;2023-08-06T06:37:28;97685.53;;;16.90;100.00
18678;BME280;9469;51.114;13.914;2023-08-06T06:42:35;97676.25;;;16.84;100.00
18678;BME280;9469;51.114;13.914;2023-08-06T06:47:47;97682.91;;;16.93;100.00
18678;BME280;9469;51.114;13.914;2023-08-06T06:52:52;97682.41;;;16.84;100.00
18678;BME280;9469;51.114;13.914;2023-08-06T06:58:07;97683.22;;;16.88;100.00
18678;BME280;9469;51.114;13.914;2023-08-06T07:03:15;97687.72;;;16.81;100.00
18678;BME280;9469;51.114;13.914;2023-08-06T07:08:20;97691.25;;;17.18;100.00
18678;BME280;9469;51.114;13.914;2023-08-06T07:13:25;97688.16;;;17.16;100.00
18678;BME280;9469;51.114;13.914;2023-08-06T07:18:33;97690.91;;;16.90;100.00
18678;BME280;9469;51.114;13.914;2023-08-06T07:23:38;97687.56;;;17.00;100.00
18678;BME280;9469;51.114;13.914;2023-08-06T07:28:46;97673.81;;;17.05;100.00
18678;BME280;9469;51.114;13.914;2023-08-06T07:33:55;97672.63;;;17.39;100.00
18678;BME280;9469;51.114;13.914;2023-08-06T07:39:01;97676.56;;;17.12;100.00
18678;BME280;9469;51.114;13.914;2023-08-06T07:44:08;97670.31;;;17.01;100.00
18678;BME280;9469;51.114;13.914;2023-08-06T07:49:16;97675.03;;;17.11;100.00
18678;BME280;9469;51.114;13.914;2023-08-06T07:54:24;97666.31;;;16.88;100.00
18678;BME280;9469;51.114;13.914;2023-08-06T07:59:34;97664.94;;;17.01;100.00
18678;BME280;9469;51.114;13.914;2023-08-06T08:04:43;97667.22;;;16.99;100.00
18678;BME280;9469;51.114;13.914;2023-08-06T08:09:49;97659.31;;;17.13;100.00
18678;BME280;9469;51.114;13.914;2023-08-06T08:14:54;97659.25;;;17.06;100.00
18678;BME280;9469;51.114;13.914;2023-08-06T08:20:03;97646.66;;;17.13;100.00
18678;BME280;9469;51.114;13.914;2023-08-06T08:25:08;97638.19;;;17.11;100.00
18678;BME280;9469;51.114;13.914;2023-08-06T08:30:13;97628.56;;;17.07;100.00
18678;BME280;9469;51.114;13.914;2023-08-06T08:35:21;97616.88;;;17.29;100.00
18678;BME280;9469;51.114;13.914;2023-08-06T08:40:33;97629.47;;;17.58;100.00
18678;BME280;9469;51.114;13.914;2023-08-06T08:45:40;97603.69;;;17.57;100.00
18678;BME280;9469;51.114;13.914;2023-08-06T08:50:53;97602.38;;;17.84;100.00
18678;BME280;9469;51.114;13.914;2023-08-06T08:56:01;97606.56;;;17.75;100.00
18678;BME280;9469;51.114;13.914;2023-08-06T09:01:07;97597.72;;;17.34;100.00
18678;BME280;9469;51.114;13.914;2023-08-06T09:06:17;97596.56;;;16.95;100.00
18678;BME280;9469;51.114;13.914;2023-08-06T09:11:25;97605.53;;;16.46;100.00
18678;BME280;9469;51.114;13.914;2023-08-06T09:16:34;97595.50;;;16.70;100.00
18678;BME280;9469;51.114;13.914;2023-08-06T09:21:45;97599.25;;;17.32;100.00
18678;BME280;9469;51.114;13.914;2023-08-06T09:26:52;97598.31;;;17.17;100.00
18678;BME280;9469;51.114;13.914;2023-08-06T09:31:57;97585.59;;;17.10;100.00
18678;BME280;9469;51.114;13.914;2023-08-06T09:37:10;97592.88;;;17.10;100.00
18678;BME280;9469;51.114;13.914;2023-08-06T09:42:15;97595.09;;;17.01;100.00
18678;BME280;9469;51.114;13.914;2023-08-06T09:47:26;97582.25;;;16.84;100.00
18678;BME280;9469;51.114;13.914;2023-08-06T09:52:36;97584.69;;;16.63;100.00
18678;BME280;9469;51.114;13.914;2023-08-06T09:57:44;97588.53;;;16.62;100.00
18678;BME280;9469;51.114;13.914;2023-08-06T10:02:49;97578.75;;;16.80;100.00
18678;BME280;9469;51.114;13.914;2023-08-06T10:08:00;97570.66;;;16.76;100.00
18678;BME280;9469;51.114;13.914;2023-08-06T10:13:07;97569.94;;;17.19;100.00
18678;BME280;9469;51.114;13.914;2023-08-06T10:18:16;97569.16;;;17.19;100.00
18678;BME280;9469;51.114;13.914;2023-08-06T10:23:36;97563.94;;;17.33;100.00
18678;BME280;9469;51.114;13.914;2023-08-06T10:28:51;97557.75;;;17.29;100.00
18678;BME280;9469;51.114;13.914;2023-08-06T10:33:59;97545.50;;;17.32;100.00
18678;BME280;9469;51.114;13.914;2023-08-06T10:39:13;97537.25;;;17.58;100.00
18678;BME280;9469;51.114;13.914;2023-08-06T10:44:32;97535.53;;;17.36;100.00
18678;BME280;9469;51.114;13.914;2023-08-06T10:49:43;97526.69;;;17.32;100.00
18678;BME280;9469;51.114;13.914;2023-08-06T10:54:53;97525.81;;;17.68;100.00
18678;BME280;9469;51.114;13.914;2023-08-06T10:59:59;97513.84;;;17.62;100.00
18678;BME280;9469;51.114;13.914;2023-08-06T11:05:17;97513.50;;;17.63;100.00
18678;BME280;9469;51.114;13.914;2023-08-06T11:10:25;97522.25;;;17.53;100.00
18678;BME280;9469;51.114;13.914;2023-08-06T11:15:33;97513.75;;;18.06;100.00
18678;BME280;9469;51.114;13.914;2023-08-06T11:20:39;97513.03;;;18.16;100.00
18678;BME280;9469;51.114;13.914;2023-08-06T11:25:47;97509.19;;;18.17;100.00
18678;BME280;9469;51.114;13.914;2023-08-06T11:30:57;97497.59;;;18.06;100.00
18678;BME280;9469;51.114;13.914;2023-08-06T11:36:05;97502.25;;;18.16;100.00
18678;BME280;9469;51.114;13.914;2023-08-06T11:41:12;97496.03;;;18.01;100.00
18678;BME280;9469;51.114;13.914;2023-08-06T11:46:18;97499.72;;;17.75;100.00
18678;BME280;9469;51.114;13.914;2023-08-06T11:51:25;97501.84;;;18.07;100.00
18678;BME280;9469;51.114;13.914;2023-08-06T11:56:33;97497.31;;;18.32;100.00
18678;BME280;9469;51.114;13.914;2023-08-06T12:01:40;97496.78;;;17.95;100.00
18678;BME280;9469;51.114;13.914;2023-08-06T12:06:45;97504.91;;;18.09;100.00
18678;BME280;9469;51.114;13.914;2023-08-06T12:11:55;97498.34;;;17.96;100.00
18678;BME280;9469;51.114;13.914;2023-08-06T12:17:00;97502.59;;;18.04;100.00
18678;BME280;9469;51.114;13.914;2023-08-06T12:22:07;97497.72;;;18.41;100.00
18678;BME280;9469;51.114;13.914;2023-08-06T12:27:15;97502.22;;;18.09;100.00
18678;BME280;9469;51.114;13.914;2023-08-06T12:32:22;97502.34;;;18.40;100.00
18678;BME280;9469;51.114;13.914;2023-08-06T12:37:28;97489.53;;;18.06;100.00
18678;BME280;9469;51.114;13.914;2023-08-06T12:42:36;97488.19;;;18.54;100.00
18678;BME280;9469;51.114;13.914;2023-08-06T12:47:41;97483.97;;;18.60;100.00
18678;BME280;9469;51.114;13.914;2023-08-06T12:52:46;97475.56;;;18.83;100.00
18678;BME280;9469;51.114;13.914;2023-08-06T12:57:57;97478.63;;;18.92;100.00
18678;BME280;9469;51.114;13.914;2023-08-06T13:03:04;97479.31;;;18.50;100.00
18678;BME280;9469;51.114;13.914;2023-08-06T13:08:10;97487.09;;;18.87;100.00
18678;BME280;9469;51.114;13.914;2023-08-06T13:13:18;97482.47;;;18.98;100.00
18678;BME280;9469;51.114;13.914;2023-08-06T13:18:23;97487.13;;;18.97;100.00
18678;BME280;9469;51.114;13.914;2023-08-06T13:23:29;97481.34;;;19.13;100.00
18678;BME280;9469;51.114;13.914;2023-08-06T13:28:37;97492.50;;;18.90;100.00
18678;BME280;9469;51.114;13.914;2023-08-06T13:33:51;97492.91;;;19.17;100.00
18678;BME280;9469;51.114;13.914;2023-08-06T13:39:00;97490.91;;;18.75;100.00
18678;BME280;9469;51.114;13.914;2023-08-06T13:44:08;97482.91;;;19.10;100.00
18678;BME280;9469;51.114;13.914;2023-08-06T13:49:13;97490.59;;;19.26;100.00
18678;BME280;9469;51.114;13.914;2023-08-06T13:54:18;97474.78;;;18.89;100.00
18678;BME280;9469;51.114;13.914;2023-08-06T13:59:28;97463.25;;;19.10;100.00
18678;BME280;9469;51.114;13.914;2023-08-06T14:04:33;97475.97;;;18.88;100.00
18678;BME280;9469;51.114;13.914;2023-08-06T14:09:39;97467.84;;;18.85;100.00
18678;BME280;9469;51.114;13.914;2023-08-06T14:14:48;97470.16;;;18.93;100.00
18678;BME280;9469;51.114;13.914;2023-08-06T14:19:56;97462.47;;;18.92;100.00
18678;BME280;9469;51.114;13.914;2023-08-06T14:25:06;97461.72;;;18.98;100.00
18678;BME280;9469;51.114;13.914;2023-08-06T14:30:14;97462.84;;;18.76;100.00
18678;BME280;9469;51.114;13.914;2023-08-06T14:35:19;97475.53;;;18.69;100.00
18678;BME280;9469;51.114;13.914;2023-08-06T14:40:24;97471.34;;;19.06;100.00
18678;BME280;9469;51.114;13.914;2023-08-06T14:45:40;97476.72;;;18.75;100.00
18678;BME280;9469;51.114;13.914;2023-08-06T14:50:48;97469.41;;;19.00;100.00
18678;BME280;9469;51.114;13.914;2023-08-06T14:55:57;97483.66;;;19.07;100.00
18678;BME280;9469;51.114;13.914;2023-08-06T15:01:04;97480.97;;;18.97;100.00
18678;BME280;9469;51.114;13.914;2023-08-06T15:06:11;97484.41;;;18.76;100.00
18678;BME280;9469;51.114;13.914;2023-08-06T15:11:19;97489.03;;;18.93;100.00
18678;BME280;9469;51.114;13.914;2023-08-06T15:16:29;97487.06;;;18.69;100.00
18678;BME280;9469;51.114;13.914;2023-08-06T15:21:36;97487.81;;;18.63;100.00
18678;BME280;9469;51.114;13.914;2023-08-06T15:26:53;97492.47;;;18.66;100.00
18678;BME280;9469;51.114;13.914;2023-08-06T15:32:01;97484.34;;;18.62;100.00
18678;BME280;9469;51.114;13.914;2023-08-06T15:37:07;97486.69;;;18.67;100.00
18678;BME280;9469;51.114;13.914;2023-08-06T15:42:13;97484.00;;;18.67;100.00
18678;BME280;9469;51.114;13.914;2023-08-06T15:47:21;97495.88;;;18.55;100.00
18678;BME280;9469;51.114;13.914;2023-08-06T15:52:29;97487.34;;;18.39;100.00
18678;BME280;9469;51.114;13.914;2023-08-06T15:57:35;97487.44;;;18.60;100.00
18678;BME280;9469;51.114;13.914;2023-08-06T16:02:45;97488.59;;;18.56;100.00
18678;BME280;9469;51.114;13.914;2023-08-06T16:07:54;97490.78;;;18.36;100.00
18678;BME280;9469;51.114;13.914;2023-08-06T16:13:02;97477.31;;;18.33;100.00
18678;BME280;9469;51.114;13.914;2023-08-06T16:18:10;97485.31;;;18.05;100.00
18678;BME280;9469;51.114;13.914;2023-08-06T16:23:18;97480.31;;;18.10;100.00
18678;BME280;9469;51.114;13.914;2023-08-06T16:28:24;97494.56;;;18.11;100.00
18678;BME280;9469;51.114;13.914;2023-08-06T16:33:34;97490.69;;;18.08;100.00
18678;BME280;9469;51.114;13.914;2023-08-06T16:38:40;97486.53;;;18.25;100.00
18678;BME280;9469;51.114;13.914;2023-08-06T16:43:47;97493.19;;;18.45;100.00
18678;BME280;9469;51.114;13.914;2023-08-06T16:48:55;97511.53;;;18.29;100.00
18678;BME280;9469;51.114;13.914;2023-08-06T16:54:03;97490.41;;;18.34;100.00
18678;BME280;9469;51.114;13.914;2023-08-06T16:59:09;97491.03;;;18.00;100.00
18678;BME280;9469;51.114;13.914;2023-08-06T17:04:17;97488.31;;;17.92;100.00
18678;BME280;9469;51.114;13.914;2023-08-06T17:09:23;97493.00;;;18.10;100.00
18678;BME280;9469;51.114;13.914;2023-08-06T17:14:28;97483.78;;;18.14;100.00
18678;BME280;9469;51.114;13.914;2023-08-06T17:19:36;97463.41;;;17.45;100.00
18678;BME280;9469;51.114;13.914;2023-08-06T17:24:43;97456.69;;;17.17;100.00
18678;BME280;9469;51.114;13.914;2023-08-06T17:29:48;97461.50;;;17.45;100.00
18678;BME280;9469;51.114;13.914;2023-08-06T17:34:56;97453.78;;;17.37;100.00
18678;BME280;9469;51.114;13.914;2023-08-06T17:40:01;97459.78;;;17.19;100.00
18678;BME280;9469;51.114;13.914;2023-08-06T17:45:09;97474.09;;;17.34;100.00
18678;BME280;9469;51.114;13.914;2023-08-06T17:50:17;97481.84;;;17.46;100.00
18678;BME280;9469;51.114;13.914;2023-08-06T17:55:27;97477.88;;;17.26;100.00
18678;BME280;9469;51.114;13.914;2023-08-06T18:00:33;97480.72;;;17.00;100.00
18678;BME280;9469;51.114;13.914;2023-08-06T18:05:42;97477.19;;;16.89;100.00
18678;BME280;9469;51.114;13.914;2023-08-06T18:10:47;97491.06;;;16.98;100.00
18678;BME280;9469;51.114;13.914;2023-08-06T18:15:59;97495.88;;;16.78;100.00
18678;BME280;9469;51.114;13.914;2023-08-06T18:21:08;97500.09;;;16.79;100.00
18678;BME280;9469;51.114;13.914;2023-08-06T18:26:14;97503.03;;;16.67;100.00
18678;BME280;9469;51.114;13.914;2023-08-06T18:31:19;97512.03;;;16.82;100.00
18678;BME280;9469;51.114;13.914;2023-08-06T18:36:31;97524.31;;;17.27;100.00
18678;BME280;9469;51.114;13.914;2023-08-06T18:41:38;97535.91;;;16.94;100.00
18678;BME280;9469;51.114;13.914;2023-08-06T18:46:43;97541.44;;;17.08;100.00
18678;BME280;9469;51.114;13.914;2023-08-06T18:51:53;97556.72;;;17.00;100.00
18678;BME280;9469;51.114;13.914;2023-08-06T18:57:01;97556.03;;;17.07;100.00
18678;BME280;9469;51.114;13.914;2023-08-06T19:02:06;97558.88;;;16.88;100.00
18678;BME280;9469;51.114;13.914;2023-08-06T19:07:14;97562.78;;;16.94;100.00
18678;BME280;9469;51.114;13.914;2023-08-06T19:12:20;97561.91;;;16.83;100.00
18678;BME280;9469;51.114;13.914;2023-08-06T19:17:27;97567.53;;;16.71;100.00
18678;BME280;9469;51.114;13.914;2023-08-06T19:22:35;97565.94;;;16.36;100.00
18678;BME280;9469;51.114;13.914;2023-08-06T19:27:41;97551.59;;;16.52;100.00
18678;BME280;9469;51.114;13.914;2023-08-06T19:32:49;97562.88;;;16.38;100.00
18678;BME280;9469;51.114;13.914;2023-08-06T19:37:58;97552.63;;;16.14;100.00
18678;BME280;9469;51.114;13.914;2023-08-06T19:43:03;97559.03;;;15.79;100.00
18678;BME280;9469;51.114;13.914;2023-08-06T19:48:09;97545.94;;;15.74;100.00
18678;BME280;9469;51.114;13.914;2023-08-06T19:53:17;97544.56;;;15.84;100.00
18678;BME280;9469;51.114;13.914;2023-08-06T19:58:26;97536.59;;;15.91;100.00
18678;BME280;9469;51.114;13.914;2023-08-06T20:03:34;97532.44;;;15.94;100.00
18678;BME280;9469;51.114;13.914;2023-08-06T20:08:48;97535.91;;;15.94;100.00
18678;BME280;9469;51.114;13.914;2023-08-06T20:13:53;97535.91;;;15.94;100.00
18678;BME280;9469;51.114;13.914;2023-08-06T20:18:59;97540.00;;;16.14;100.00
18678;BME280;9469;51.114;13.914;2023-08-06T20:24:07;97536.72;;;15.98;100.00
18678;BME280;9469;51.114;13.914;2023-08-06T20:29:13;97540.91;;;15.99;100.00
18678;BME280;9469;51.114;13.914;2023-08-06T20:34:18;97545.59;;;15.76;100.00
18678;BME280;9469;51.114;13.914;2023-08-06T20:39:27;97544.44;;;15.77;100.00
18678;BME280;9469;51.114;13.914;2023-08-06T20:44:32;97543.53;;;15.43;100.00
18678;BME280;9469;51.114;13.914;2023-08-06T20:49:39;97550.94;;;15.50;100.00
18678;BME280;9469;51.114;13.914;2023-08-06T20:54:47;97548.47;;;15.64;100.00
18678;BME280;9469;51.114;13.914;2023-08-06T20:59:52;97544.56;;;15.58;100.00
18678;BME280;9469;51.114;13.914;2023-08-06T21:05:01;97546.38;;;15.54;100.00
18678;BME280;9469;51.114;13.914;2023-08-06T21:10:10;97543.88;;;15.64;100.00
18678;BME280;9469;51.114;13.914;2023-08-06T21:15:16;97546.75;;;15.52;100.00
18678;BME280;9469;51.114;13.914;2023-08-06T21:20:23;97537.53;;;15.50;100.00
18678;BME280;9469;51.114;13.914;2023-08-06T21:25:31;97541.69;;;15.47;100.00
18678;BME280;9469;51.114;13.914;2023-08-06T21:30:36;97548.75;;;15.36;100.00
18678;BME280;9469;51.114;13.914;2023-08-06T21:35:42;97547.53;;;15.53;100.00
18678;BME280;9469;51.114;13.914;2023-08-06T21:40:49;97546.16;;;15.40;100.00
18678;BME280;9469;51.114;13.914;2023-08-06T21:45:55;97546.09;;;15.59;100.00
18678;BME280;9469;51.114;13.914;2023-08-06T21:51:00;97545.63;;;15.53;100.00
18678;BME280;9469;51.114;13.914;2023-08-06T21:56:11;97550.25;;;15.56;100.00
18678;BME280;9469;51.114;13.914;2023-08-06T22:01:24;97558.41;;;15.41;100.00
18678;BME280;9469;51.114;13.914;2023-08-06T22:06:34;97560.28;;;15.59;100.00
18678;BME280;9469;51.114;13.914;2023-08-06T22:11:41;97559.16;;;15.38;100.00
18678;BME280;9469;51.114;13.914;2023-08-06T22:16:47;97553.91;;;15.45;100.00
18678;BME280;9469;51.114;13.914;2023-08-06T22:21:52;97564.63;;;15.45;100.00
18678;BME280;9469;51.114;13.914;2023-08-06T22:27:00;97568.56;;;15.51;100.00
18678;BME280;9469;51.114;13.914;2023-08-06T22:32:07;97562.44;;;15.50;100.00
18678;BME280;9469;51.114;13.914;2023-08-06T22:37:14;97563.97;;;15.29;100.00
18678;BME280;9469;51.114;13.914;2023-08-06T22:42:23;97566.97;;;15.46;100.00
18678;BME280;9469;51.114;13.914;2023-08-06T22:47:28;97567.88;;;15.35;100.00
18678;BME280;9469;51.114;13.914;2023-08-06T22:52:33;97577.78;;;15.31;100.00
18678;BME280;9469;51.114;13.914;2023-08-06T22:57:41;97569.22;;;15.44;100.00
18678;BME280;9469;51.114;13.914;2023-08-06T23:02:46;97558.16;;;15.27;100.00
18678;BME280;9469;51.114;13.914;2023-08-06T23:08:08;97570.56;;;15.35;100.00
18678;BME280;9469;51.114;13.914;2023-08-06T23:13:16;97572.41;;;15.31;100.00
18678;BME280;9469;51.114;13.914;2023-08-06T23:18:21;97575.03;;;15.27;100.00
18678;BME280;9469;51.114;13.914;2023-08-06T23:23:27;97570.44;;;15.28;100.00
18678;BME280;9469;51.114;13.914;2023-08-06T23:28:35;97581.63;;;15.11;100.00
18678;BME280;9469;51.114;13.914;2023-08-06T23:33:40;97570.81;;;15.26;100.00
18678;BME280;9469;51.114;13.914;2023-08-06T23:38:46;97553.72;;;15.12;100.00
18678;BME280;9469;51.114;13.914;2023-08-06T23:43:55;97547.38;;;15.20;100.00
18678;BME280;9469;51.114;13.914;2023-08-06T23:49:00;97551.31;;;15.06;100.00
18678;BME280;9469;51.114;13.914;2023-08-06T23:54:05;97562.97;;;14.95;100.00
18678;BME280;9469;51.114;13.914;2023-08-06T23:59:13;97549.94;;;14.93;100.00
